sensor_id;sensor_type;location;lat;lon;timestamp;pressure;altitude;pressure_sealevel;temperature;humidity
36834;BME280;48003;52.084;5.224;2023-06-19T00:01:49;100767.0;;;25.92;43.77
36834;BME280;48003;52.084;5.224;2023-06-19T00:03:26;100772.0;;;25.77;44.13
36834;BME280;48003;52.084;5.224;2023-06-19T00:05:02;100769.0;;;25.91;44.0
36834;BME280;48003;52.084;5.224;2023-06-19T00:08:15;100771.0;;;25.86;44.38
36834;BME280;48003;52.084;5.224;2023-06-19T00:09:52;100780.0;;;26.01;44.16
36834;BME280;48003;52.084;5.224;2023-06-19T00:11:29;100770.0;;;26.03;44.2
36834;BME280;48003;52.084;5.224;2023-06-19T00:14:42;100775.0;;;25.96;44.53
36834;BME280;48003;52.084;5.224;2023-06-19T00:16:19;100780.0;;;25.9;44.78
36834;BME280;48003;52.084;5.224;2023-06-19T00:17:56;100771.0;;;25.61;45.61
36834;BME280;48003;52.084;5.224;2023-06-19T00:19:33;100775.0;;;25.78;45.43
36834;BME280;48003;52.084;5.224;2023-06-19T00:22:47;100775.0;;;25.88;45.38
36834;BME280;48003;52.084;5.224;2023-06-19T00:24:23;100774.0;;;25.8;45.75
36834;BME280;48003;52.084;5.224;2023-06-19T00:25:59;100774.0;;;25.48;46.61
36834;BME280;48003;52.084;5.224;2023-06-19T00:29:12;100772.0;;;25.77;46.21
36834;BME280;48003;52.084;5.224;2023-06-19T00:30:48;100777.0;;;25.58;46.77
36834;BME280;48003;52.084;5.224;2023-06-19T00:32:25;100771.0;;;25.59;46.8
36834;BME280;48003;52.084;5.224;2023-06-19T00:35:37;100780.0;;;25.41;47.36
36834;BME280;48003;52.084;5.224;2023-06-19T00:37:13;100776.0;;;25.54;47.2
36834;BME280;48003;52.084;5.224;2023-06-19T00:38:50;100782.0;;;25.55;47.27
36834;BME280;48003;52.084;5.224;2023-06-19T00:40:28;100784.0;;;25.39;47.84
36834;BME280;48003;52.084;5.224;2023-06-19T00:43:41;100783.0;;;25.77;47.14
36834;BME280;48003;52.084;5.224;2023-06-19T00:45:19;100782.0;;;25.33;48.38
36834;BME280;48003;52.084;5.224;2023-06-19T00:46:58;100786.0;;;25.48;48.21
36834;BME280;48003;52.084;5.224;2023-06-19T00:50:12;100788.0;;;25.41;48.72
36834;BME280;48003;52.084;5.224;2023-06-19T00:51:51;100800.0;;;25.06;49.81
36834;BME280;48003;52.084;5.224;2023-06-19T00:53:29;100805.0;;;25.01;50.38
36834;BME280;48003;52.084;5.224;2023-06-19T00:55:09;100811.0;;;24.82;51.19
36834;BME280;48003;52.084;5.224;2023-06-19T00:58:22;100809.0;;;24.7;51.91
36834;BME280;48003;52.084;5.224;2023-06-19T00:59:59;100802.0;;;24.43;52.88
36834;BME280;48003;52.084;5.224;2023-06-19T01:01:35;100811.0;;;24.48;53.0
36834;BME280;48003;52.084;5.224;2023-06-19T01:04:49;100808.0;;;24.21;53.93
36834;BME280;48003;52.084;5.224;2023-06-19T01:06:32;100806.0;;;24.4;53.52
36834;BME280;48003;52.084;5.224;2023-06-19T01:08:45;100815.0;;;24.22;54.12
36834;BME280;48003;52.084;5.224;2023-06-19T01:10:28;100816.0;;;24.32;54.01
36834;BME280;48003;52.084;5.224;2023-06-19T01:12:13;100811.0;;;24.15;54.55
36834;BME280;48003;52.084;5.224;2023-06-19T01:13:56;100819.0;;;24.19;54.7
36834;BME280;48003;52.084;5.224;2023-06-19T01:17:15;100830.0;;;24.46;53.96
36834;BME280;48003;52.084;5.224;2023-06-19T01:18:53;100836.0;;;24.25;54.73
36834;BME280;48003;52.084;5.224;2023-06-19T01:20:30;100824.0;;;24.18;55.0
36834;BME280;48003;52.084;5.224;2023-06-19T01:23:43;100832.0;;;23.98;55.82
36834;BME280;48003;52.084;5.224;2023-06-19T01:25:19;100841.0;;;24.12;55.65
36834;BME280;48003;52.084;5.224;2023-06-19T01:26:57;100837.0;;;23.91;56.37
36834;BME280;48003;52.084;5.224;2023-06-19T01:28:34;100836.0;;;23.92;56.57
36834;BME280;48003;52.084;5.224;2023-06-19T01:31:54;100843.0;;;23.65;57.7
36834;BME280;48003;52.084;5.224;2023-06-19T01:33:36;100841.0;;;23.63;57.95
36834;BME280;48003;52.084;5.224;2023-06-19T01:35:17;100846.0;;;23.35;59.33
36834;BME280;48003;52.084;5.224;2023-06-19T01:36:58;100844.0;;;23.72;58.57
36834;BME280;48003;52.084;5.224;2023-06-19T01:40:14;100836.0;;;23.48;59.69
36834;BME280;48003;52.084;5.224;2023-06-19T01:41:52;100835.0;;;23.38;60.41
36834;BME280;48003;52.084;5.224;2023-06-19T01:43:30;100833.0;;;23.49;60.41
36834;BME280;48003;52.084;5.224;2023-06-19T01:46:47;100842.0;;;23.68;60.07
36834;BME280;48003;52.084;5.224;2023-06-19T01:48:25;100849.0;;;23.49;60.96
36834;BME280;48003;52.084;5.224;2023-06-19T01:50:02;100848.0;;;23.18;62.28
36834;BME280;48003;52.084;5.224;2023-06-19T01:51:39;100840.0;;;23.39;61.76
36834;BME280;48003;52.084;5.224;2023-06-19T01:54:52;100855.0;;;23.43;61.92
36834;BME280;48003;52.084;5.224;2023-06-19T01:56:28;100838.0;;;23.34;62.39
36834;BME280;48003;52.084;5.224;2023-06-19T01:58:05;100866.0;;;23.06;63.54
36834;BME280;48003;52.084;5.224;2023-06-19T02:01:19;100855.0;;;23.28;62.92
36834;BME280;48003;52.084;5.224;2023-06-19T02:02:56;100855.0;;;23.15;63.48
36834;BME280;48003;52.084;5.224;2023-06-19T02:04:32;100849.0;;;23.26;63.24
36834;BME280;48003;52.084;5.224;2023-06-19T02:07:45;100841.0;;;23.21;63.48
36834;BME280;48003;52.084;5.224;2023-06-19T02:09:22;100859.0;;;23.35;63.17
36834;BME280;48003;52.084;5.224;2023-06-19T02:10:58;100853.0;;;23.15;63.89
36834;BME280;48003;52.084;5.224;2023-06-19T02:12:34;100845.0;;;23.21;63.74
36834;BME280;48003;52.084;5.224;2023-06-19T02:15:46;100849.0;;;23.17;64.03
36834;BME280;48003;52.084;5.224;2023-06-19T02:17:23;100853.0;;;23.5;62.98
36834;BME280;48003;52.084;5.224;2023-06-19T02:18:59;100855.0;;;23.17;64.23
36834;BME280;48003;52.084;5.224;2023-06-19T02:22:11;100847.0;;;23.18;64.24
36834;BME280;48003;52.084;5.224;2023-06-19T02:23:48;100855.0;;;23.15;64.42
36834;BME280;48003;52.084;5.224;2023-06-19T02:25:25;100856.0;;;23.44;63.51
36834;BME280;48003;52.084;5.224;2023-06-19T02:28:37;100852.0;;;23.39;63.51
36834;BME280;48003;52.084;5.224;2023-06-19T02:30:13;100850.0;;;23.48;63.39
36834;BME280;48003;52.084;5.224;2023-06-19T02:31:50;100852.0;;;23.45;63.47
36834;BME280;48003;52.084;5.224;2023-06-19T02:33:27;100856.0;;;23.77;62.47
36834;BME280;48003;52.084;5.224;2023-06-19T02:36:45;100849.0;;;23.44;63.47
36834;BME280;48003;52.084;5.224;2023-06-19T02:38:21;100850.0;;;23.54;63.27
36834;BME280;48003;52.084;5.224;2023-06-19T02:39:57;100859.0;;;23.32;64.06
36834;BME280;48003;52.084;5.224;2023-06-19T02:43:10;100858.0;;;23.63;63.17
36834;BME280;48003;52.084;5.224;2023-06-19T02:44:47;100867.0;;;23.79;62.55
36834;BME280;48003;52.084;5.224;2023-06-19T02:46:23;100871.0;;;23.71;62.96
36834;BME280;48003;52.084;5.224;2023-06-19T02:49:35;100883.0;;;23.54;63.6
36834;BME280;48003;52.084;5.224;2023-06-19T02:51:12;100872.0;;;23.67;63.15
36834;BME280;48003;52.084;5.224;2023-06-19T02:52:49;100886.0;;;23.41;64.17
36834;BME280;48003;52.084;5.224;2023-06-19T02:54:25;100873.0;;;23.61;63.5
36834;BME280;48003;52.084;5.224;2023-06-19T02:57:38;100877.0;;;23.7;63.43
36834;BME280;48003;52.084;5.224;2023-06-19T02:59:14;100873.0;;;23.79;63.09
36834;BME280;48003;52.084;5.224;2023-06-19T03:00:50;100886.0;;;23.43;64.31
36834;BME280;48003;52.084;5.224;2023-06-19T03:04:03;100877.0;;;23.04;65.83
36834;BME280;48003;52.084;5.224;2023-06-19T03:05:40;100887.0;;;23.36;64.95
36834;BME280;48003;52.084;5.224;2023-06-19T03:07:16;100884.0;;;23.19;65.59
36834;BME280;48003;52.084;5.224;2023-06-19T03:10:29;100887.0;;;23.36;65.19
36834;BME280;48003;52.084;5.224;2023-06-19T03:12:07;100889.0;;;23.09;66.08
36834;BME280;48003;52.084;5.224;2023-06-19T03:13:45;100891.0;;;22.82;67.23
36834;BME280;48003;52.084;5.224;2023-06-19T03:15:24;100895.0;;;23.04;66.66
36834;BME280;48003;52.084;5.224;2023-06-19T03:18:37;100890.0;;;23.11;66.52
36834;BME280;48003;52.084;5.224;2023-06-19T03:20:13;100882.0;;;23.01;66.73
36834;BME280;48003;52.084;5.224;2023-06-19T03:21:49;100892.0;;;23.44;65.59
36834;BME280;48003;52.084;5.224;2023-06-19T03:25:01;100893.0;;;23.44;65.56
36834;BME280;48003;52.084;5.224;2023-06-19T03:26:37;100902.0;;;22.72;68.52
36834;BME280;48003;52.084;5.224;2023-06-19T03:28:14;100914.0;;;22.8;68.56
36834;BME280;48003;52.084;5.224;2023-06-19T03:31:26;100906.0;;;23.04;67.84
36834;BME280;48003;52.084;5.224;2023-06-19T03:33:02;100921.0;;;22.81;68.7
36834;BME280;48003;52.084;5.224;2023-06-19T03:34:38;100905.0;;;22.73;69.58
36834;BME280;48003;52.084;5.224;2023-06-19T03:36:14;100911.0;;;22.5;70.89
36834;BME280;48003;52.084;5.224;2023-06-19T03:39:27;100915.0;;;22.54;71.0
36834;BME280;48003;52.084;5.224;2023-06-19T03:41:04;100920.0;;;22.88;70.11
36834;BME280;48003;52.084;5.224;2023-06-19T03:42:41;100930.0;;;22.66;71.24
36834;BME280;48003;52.084;5.224;2023-06-19T03:45:53;100918.0;;;22.29;73.59
36834;BME280;48003;52.084;5.224;2023-06-19T03:47:30;100932.0;;;22.19;74.19
36834;BME280;48003;52.084;5.224;2023-06-19T03:49:07;100921.0;;;22.49;73.3
36834;BME280;48003;52.084;5.224;2023-06-19T03:52:20;100930.0;;;22.84;71.73
36834;BME280;48003;52.084;5.224;2023-06-19T03:53:57;100926.0;;;22.5;73.14
36834;BME280;48003;52.084;5.224;2023-06-19T03:55:34;100934.0;;;22.59;73.12
36834;BME280;48003;52.084;5.224;2023-06-19T03:57:11;100936.0;;;22.7;72.72
36834;BME280;48003;52.084;5.224;2023-06-19T04:00:24;100943.0;;;22.35;74.12
36834;BME280;48003;52.084;5.224;2023-06-19T04:02:00;100947.0;;;22.4;73.83
36834;BME280;48003;52.084;5.224;2023-06-19T04:03:37;100951.0;;;22.41;74.05
36834;BME280;48003;52.084;5.224;2023-06-19T04:06:51;100945.0;;;22.49;73.58
36834;BME280;48003;52.084;5.224;2023-06-19T04:08:27;100945.0;;;22.3;74.59
36834;BME280;48003;52.084;5.224;2023-06-19T04:10:04;100950.0;;;22.37;74.33
36834;BME280;48003;52.084;5.224;2023-06-19T04:13:16;100941.0;;;22.58;73.13
36834;BME280;48003;52.084;5.224;2023-06-19T04:14:53;100948.0;;;22.31;74.14
36834;BME280;48003;52.084;5.224;2023-06-19T04:16:30;100952.0;;;22.16;74.52
36834;BME280;48003;52.084;5.224;2023-06-19T04:18:07;100955.0;;;22.1;75.34
36834;BME280;48003;52.084;5.224;2023-06-19T04:21:20;100966.0;;;22.15;75.27
36834;BME280;48003;52.084;5.224;2023-06-19T04:22:57;100962.0;;;21.93;76.47
36834;BME280;48003;52.084;5.224;2023-06-19T04:24:34;100965.0;;;21.88;76.83
36834;BME280;48003;52.084;5.224;2023-06-19T04:27:47;100968.0;;;22.37;75.02
36834;BME280;48003;52.084;5.224;2023-06-19T04:29:23;100978.0;;;22.24;75.64
36834;BME280;48003;52.084;5.224;2023-06-19T04:31:00;100977.0;;;22.11;75.88
36834;BME280;48003;52.084;5.224;2023-06-19T04:34:15;100993.0;;;22.04;76.0
36834;BME280;48003;52.084;5.224;2023-06-19T04:35:52;101007.0;;;21.84;76.52
36834;BME280;48003;52.084;5.224;2023-06-19T04:37:29;100993.0;;;21.82;76.86
36834;BME280;48003;52.084;5.224;2023-06-19T04:39:06;100997.0;;;22.05;75.66
36834;BME280;48003;52.084;5.224;2023-06-19T04:42:20;101000.0;;;21.88;75.58
36834;BME280;48003;52.084;5.224;2023-06-19T04:43:57;101003.0;;;21.93;75.02
36834;BME280;48003;52.084;5.224;2023-06-19T04:45:34;100997.0;;;21.97;74.77
36834;BME280;48003;52.084;5.224;2023-06-19T04:48:50;101010.0;;;21.94;74.89
36834;BME280;48003;52.084;5.224;2023-06-19T04:50:27;101013.0;;;21.93;74.17
36834;BME280;48003;52.084;5.224;2023-06-19T04:52:04;101013.0;;;21.75;74.44
36834;BME280;48003;52.084;5.224;2023-06-19T04:53:40;101019.0;;;22.0;73.37
36834;BME280;48003;52.084;5.224;2023-06-19T04:56:52;101021.0;;;21.86;73.7
36834;BME280;48003;52.084;5.224;2023-06-19T04:58:28;101019.0;;;21.72;74.13
36834;BME280;48003;52.084;5.224;2023-06-19T05:00:06;101011.0;;;21.83;73.62
36834;BME280;48003;52.084;5.224;2023-06-19T05:03:20;101012.0;;;22.09;72.69
36834;BME280;48003;52.084;5.224;2023-06-19T05:04:57;101021.0;;;22.29;71.52
36834;BME280;48003;52.084;5.224;2023-06-19T05:06:35;101019.0;;;22.02;72.34
36834;BME280;48003;52.084;5.224;2023-06-19T05:09:49;101027.0;;;21.84;73.05
36834;BME280;48003;52.084;5.224;2023-06-19T05:11:26;101026.0;;;22.0;72.09
36834;BME280;48003;52.084;5.224;2023-06-19T05:13:04;101026.0;;;22.07;71.92
36834;BME280;48003;52.084;5.224;2023-06-19T05:14:40;101039.0;;;22.13;71.28
36834;BME280;48003;52.084;5.224;2023-06-19T05:17:53;101024.0;;;22.07;71.33
36834;BME280;48003;52.084;5.224;2023-06-19T05:19:30;101042.0;;;22.04;71.0
36834;BME280;48003;52.084;5.224;2023-06-19T05:21:08;101030.0;;;22.04;70.99
36834;BME280;48003;52.084;5.224;2023-06-19T05:24:22;101040.0;;;21.83;71.23
36834;BME280;48003;52.084;5.224;2023-06-19T05:25:59;101031.0;;;22.1;70.33
36834;BME280;48003;52.084;5.224;2023-06-19T05:27:36;101035.0;;;21.93;70.7
36834;BME280;48003;52.084;5.224;2023-06-19T05:29:13;101040.0;;;21.98;70.84
36834;BME280;48003;52.084;5.224;2023-06-19T05:32:26;101048.0;;;21.93;70.89
36834;BME280;48003;52.084;5.224;2023-06-19T05:34:02;101044.0;;;22.02;70.78
36834;BME280;48003;52.084;5.224;2023-06-19T05:35:38;101042.0;;;22.3;69.77
36834;BME280;48003;52.084;5.224;2023-06-19T05:38:52;101047.0;;;22.02;70.47
36834;BME280;48003;52.084;5.224;2023-06-19T05:40:30;101047.0;;;22.28;69.73
36834;BME280;48003;52.084;5.224;2023-06-19T05:42:07;101060.0;;;22.18;69.77
36834;BME280;48003;52.084;5.224;2023-06-19T05:45:20;101061.0;;;21.81;71.19
36834;BME280;48003;52.084;5.224;2023-06-19T05:46:56;101060.0;;;22.11;70.52
36834;BME280;48003;52.084;5.224;2023-06-19T05:48:32;101071.0;;;21.81;71.11
36834;BME280;48003;52.084;5.224;2023-06-19T05:50:09;101076.0;;;21.74;71.41
36834;BME280;48003;52.084;5.224;2023-06-19T05:53:23;101076.0;;;21.75;71.49
36834;BME280;48003;52.084;5.224;2023-06-19T05:54:59;101074.0;;;22.0;70.37
36834;BME280;48003;52.084;5.224;2023-06-19T05:56:35;101078.0;;;22.24;69.28
36834;BME280;48003;52.084;5.224;2023-06-19T05:59:50;101078.0;;;21.93;70.12
36834;BME280;48003;52.084;5.224;2023-06-19T06:01:28;101077.0;;;21.98;69.89
36834;BME280;48003;52.084;5.224;2023-06-19T06:03:04;101078.0;;;22.03;69.36
36834;BME280;48003;52.084;5.224;2023-06-19T06:04:42;101081.0;;;22.09;69.38
36834;BME280;48003;52.084;5.224;2023-06-19T06:07:55;101077.0;;;22.32;68.38
36834;BME280;48003;52.084;5.224;2023-06-19T06:09:33;101088.0;;;21.85;69.55
36834;BME280;48003;52.084;5.224;2023-06-19T06:11:09;101077.0;;;22.25;68.19
36834;BME280;48003;52.084;5.224;2023-06-19T06:14:25;101082.0;;;22.15;68.55
36834;BME280;48003;52.084;5.224;2023-06-19T06:16:02;101092.0;;;21.99;68.36
36834;BME280;48003;52.084;5.224;2023-06-19T06:17:38;101100.0;;;22.02;67.72
36834;BME280;48003;52.084;5.224;2023-06-19T06:20:53;101099.0;;;21.59;68.61
36834;BME280;48003;52.084;5.224;2023-06-19T06:22:29;101105.0;;;22.0;67.41
36834;BME280;48003;52.084;5.224;2023-06-19T06:24:07;101112.0;;;21.96;67.85
36834;BME280;48003;52.084;5.224;2023-06-19T06:25:44;101113.0;;;22.34;66.73
36834;BME280;48003;52.084;5.224;2023-06-19T06:28:56;101117.0;;;22.12;67.25
36834;BME280;48003;52.084;5.224;2023-06-19T06:30:34;101113.0;;;22.17;66.98
36834;BME280;48003;52.084;5.224;2023-06-19T06:32:11;101127.0;;;21.93;67.37
36834;BME280;48003;52.084;5.224;2023-06-19T06:35:25;101116.0;;;21.99;67.58
36834;BME280;48003;52.084;5.224;2023-06-19T06:37:03;101123.0;;;21.92;67.61
36834;BME280;48003;52.084;5.224;2023-06-19T06:38:40;101114.0;;;22.36;66.44
36834;BME280;48003;52.084;5.224;2023-06-19T06:40:17;101119.0;;;22.54;65.63
36834;BME280;48003;52.084;5.224;2023-06-19T06:43:32;101124.0;;;22.18;66.8
36834;BME280;48003;52.084;5.224;2023-06-19T06:45:09;101131.0;;;22.3;66.3
36834;BME280;48003;52.084;5.224;2023-06-19T06:46:47;101119.0;;;22.24;66.27
36834;BME280;48003;52.084;5.224;2023-06-19T06:50:00;101127.0;;;22.19;66.0
36834;BME280;48003;52.084;5.224;2023-06-19T06:51:37;101139.0;;;21.96;66.91
36834;BME280;48003;52.084;5.224;2023-06-19T06:53:14;101146.0;;;22.03;66.58
36834;BME280;48003;52.084;5.224;2023-06-19T06:56:28;101142.0;;;22.06;66.61
36834;BME280;48003;52.084;5.224;2023-06-19T06:58:05;101141.0;;;22.07;66.69
36834;BME280;48003;52.084;5.224;2023-06-19T06:59:42;101147.0;;;22.16;66.5
36834;BME280;48003;52.084;5.224;2023-06-19T07:01:18;101150.0;;;22.16;66.69
36834;BME280;48003;52.084;5.224;2023-06-19T07:04:31;101155.0;;;22.16;67.02
36834;BME280;48003;52.084;5.224;2023-06-19T07:06:08;101160.0;;;22.13;66.91
36834;BME280;48003;52.084;5.224;2023-06-19T07:07:45;101164.0;;;21.9;68.2
36834;BME280;48003;52.084;5.224;2023-06-19T07:10:59;101168.0;;;22.21;67.02
36834;BME280;48003;52.084;5.224;2023-06-19T07:12:35;101168.0;;;21.89;68.41
36834;BME280;48003;52.084;5.224;2023-06-19T07:14:20;101176.0;;;22.02;67.55
36834;BME280;48003;52.084;5.224;2023-06-19T07:15:57;101177.0;;;21.84;67.58
36834;BME280;48003;52.084;5.224;2023-06-19T07:19:09;101182.0;;;21.66;67.62
36834;BME280;48003;52.084;5.224;2023-06-19T07:20:47;101191.0;;;21.61;67.66
36834;BME280;48003;52.084;5.224;2023-06-19T07:22:24;101189.0;;;21.83;66.85
36834;BME280;48003;52.084;5.224;2023-06-19T07:25:37;101190.0;;;21.76;66.3
36834;BME280;48003;52.084;5.224;2023-06-19T07:27:15;101187.0;;;21.98;65.24
36834;BME280;48003;52.084;5.224;2023-06-19T07:28:52;101191.0;;;21.8;65.83
36834;BME280;48003;52.084;5.224;2023-06-19T07:30:28;101192.0;;;21.93;65.13
36834;BME280;48003;52.084;5.224;2023-06-19T07:33:44;101193.0;;;21.83;65.39
36834;BME280;48003;52.084;5.224;2023-06-19T07:35:20;101194.0;;;21.86;65.45
36834;BME280;48003;52.084;5.224;2023-06-19T07:36:56;101190.0;;;22.0;64.89
36834;BME280;48003;52.084;5.224;2023-06-19T07:40:10;101194.0;;;22.23;64.66
36834;BME280;48003;52.084;5.224;2023-06-19T07:41:47;101200.0;;;21.95;65.83
36834;BME280;48003;52.084;5.224;2023-06-19T07:43:24;101199.0;;;21.82;67.05
36834;BME280;48003;52.084;5.224;2023-06-19T07:46:37;101213.0;;;22.13;66.31
36834;BME280;48003;52.084;5.224;2023-06-19T07:48:15;101217.0;;;22.36;65.69
36834;BME280;48003;52.084;5.224;2023-06-19T07:49:52;101214.0;;;22.38;65.75
36834;BME280;48003;52.084;5.224;2023-06-19T07:51:29;101219.0;;;22.17;66.13
36834;BME280;48003;52.084;5.224;2023-06-19T07:54:51;101217.0;;;21.98;66.45
36834;BME280;48003;52.084;5.224;2023-06-19T07:56:34;101222.0;;;22.07;66.47
36834;BME280;48003;52.084;5.224;2023-06-19T07:58:11;101226.0;;;22.1;66.52
36834;BME280;48003;52.084;5.224;2023-06-19T07:59:49;101228.0;;;22.11;66.23
36834;BME280;48003;52.084;5.224;2023-06-19T08:03:04;101230.0;;;22.29;65.13
36834;BME280;48003;52.084;5.224;2023-06-19T08:04:41;101221.0;;;22.43;64.56
36834;BME280;48003;52.084;5.224;2023-06-19T08:06:17;101231.0;;;22.08;66.03
36834;BME280;48003;52.084;5.224;2023-06-19T08:09:32;101221.0;;;22.34;64.87
36834;BME280;48003;52.084;5.224;2023-06-19T08:11:08;101228.0;;;22.08;65.63
36834;BME280;48003;52.084;5.224;2023-06-19T08:12:45;101223.0;;;22.08;65.59
36834;BME280;48003;52.084;5.224;2023-06-19T08:15:57;101234.0;;;22.15;65.49
36834;BME280;48003;52.084;5.224;2023-06-19T08:17:33;101230.0;;;22.35;65.19
36834;BME280;48003;52.084;5.224;2023-06-19T08:19:09;101230.0;;;22.19;65.91
36834;BME280;48003;52.084;5.224;2023-06-19T08:20:46;101237.0;;;22.54;64.61
36834;BME280;48003;52.084;5.224;2023-06-19T08:23:58;101234.0;;;22.62;63.78
36834;BME280;48003;52.084;5.224;2023-06-19T08:25:34;101241.0;;;22.42;63.85
36834;BME280;48003;52.084;5.224;2023-06-19T08:27:10;101245.0;;;22.36;64.44
36834;BME280;48003;52.084;5.224;2023-06-19T08:30:23;101237.0;;;22.57;64.27
36834;BME280;48003;52.084;5.224;2023-06-19T08:31:59;101241.0;;;22.52;64.55
36834;BME280;48003;52.084;5.224;2023-06-19T08:33:35;101253.0;;;22.27;64.91
36834;BME280;48003;52.084;5.224;2023-06-19T08:36:47;101260.0;;;22.37;64.72
36834;BME280;48003;52.084;5.224;2023-06-19T08:38:23;101261.0;;;22.24;64.92
36834;BME280;48003;52.084;5.224;2023-06-19T08:40:00;101263.0;;;22.49;64.47
36834;BME280;48003;52.084;5.224;2023-06-19T08:41:36;101268.0;;;22.48;63.97
36834;BME280;48003;52.084;5.224;2023-06-19T08:44:49;101273.0;;;22.47;64.16
36834;BME280;48003;52.084;5.224;2023-06-19T08:46:26;101282.0;;;22.29;64.3
36834;BME280;48003;52.084;5.224;2023-06-19T08:48:03;101270.0;;;22.55;63.61
36834;BME280;48003;52.084;5.224;2023-06-19T08:51:16;101270.0;;;22.52;63.78
36834;BME280;48003;52.084;5.224;2023-06-19T08:52:52;101275.0;;;22.56;63.72
36834;BME280;48003;52.084;5.224;2023-06-19T08:54:28;101272.0;;;22.44;64.62
36834;BME280;48003;52.084;5.224;2023-06-19T08:57:40;101277.0;;;22.7;62.77
36834;BME280;48003;52.084;5.224;2023-06-19T08:59:17;101282.0;;;22.51;63.81
36834;BME280;48003;52.084;5.224;2023-06-19T09:00:54;101275.0;;;22.46;64.19
36834;BME280;48003;52.084;5.224;2023-06-19T09:02:39;101275.0;;;22.54;64.14
36834;BME280;48003;52.084;5.224;2023-06-19T09:05:52;101270.0;;;22.85;62.85
36834;BME280;48003;52.084;5.224;2023-06-19T09:07:28;101274.0;;;23.08;61.98
36834;BME280;48003;52.084;5.224;2023-06-19T09:09:05;101281.0;;;22.95;62.25
36834;BME280;48003;52.084;5.224;2023-06-19T09:12:17;101281.0;;;22.91;62.02
36834;BME280;48003;52.084;5.224;2023-06-19T09:13:56;101286.0;;;23.18;61.32
36834;BME280;48003;52.084;5.224;2023-06-19T09:15:34;101296.0;;;23.09;62.17
36834;BME280;48003;52.084;5.224;2023-06-19T09:17:13;101291.0;;;23.09;60.93
36834;BME280;48003;52.084;5.224;2023-06-19T09:20:26;101296.0;;;23.01;61.88
36834;BME280;48003;52.084;5.224;2023-06-19T09:22:04;101292.0;;;22.95;62.6
36834;BME280;48003;52.084;5.224;2023-06-19T09:23:41;101306.0;;;22.95;62.06
36834;BME280;48003;52.084;5.224;2023-06-19T09:27:05;101299.0;;;22.68;61.96
36834;BME280;48003;52.084;5.224;2023-06-19T09:28:41;101306.0;;;22.8;62.24
36834;BME280;48003;52.084;5.224;2023-06-19T09:30:18;101305.0;;;22.62;62.64
36834;BME280;48003;52.084;5.224;2023-06-19T09:31:54;101308.0;;;22.87;61.88
36834;BME280;48003;52.084;5.224;2023-06-19T09:35:08;101314.0;;;22.92;62.04
36834;BME280;48003;52.084;5.224;2023-06-19T09:36:45;101316.0;;;23.05;61.72
36834;BME280;48003;52.084;5.224;2023-06-19T09:38:25;101320.0;;;22.79;62.07
36834;BME280;48003;52.084;5.224;2023-06-19T09:41:40;101320.0;;;23.06;61.02
36834;BME280;48003;52.084;5.224;2023-06-19T09:43:23;101327.0;;;23.23;60.64
36834;BME280;48003;52.084;5.224;2023-06-19T09:45:00;101325.0;;;23.39;60.04
36834;BME280;48003;52.084;5.224;2023-06-19T09:46:41;101335.0;;;23.25;60.38
36834;BME280;48003;52.084;5.224;2023-06-19T09:50:09;101333.0;;;23.1;60.94
36834;BME280;48003;52.084;5.224;2023-06-19T09:51:48;101330.0;;;23.45;60.48
36834;BME280;48003;52.084;5.224;2023-06-19T09:53:25;101341.0;;;23.18;60.39
36834;BME280;48003;52.084;5.224;2023-06-19T09:55:03;101349.0;;;23.4;59.82
36834;BME280;48003;52.084;5.224;2023-06-19T09:58:17;101342.0;;;23.77;59.13
36834;BME280;48003;52.084;5.224;2023-06-19T09:59:55;101345.0;;;23.48;59.71
36834;BME280;48003;52.084;5.224;2023-06-19T10:01:33;101341.0;;;23.12;60.54
36834;BME280;48003;52.084;5.224;2023-06-19T10:03:12;101347.0;;;23.0;60.25
36834;BME280;48003;52.084;5.224;2023-06-19T10:06:27;101345.0;;;23.36;60.2
36834;BME280;48003;52.084;5.224;2023-06-19T10:08:03;101348.0;;;23.64;59.74
36834;BME280;48003;52.084;5.224;2023-06-19T10:09:39;101350.0;;;23.67;59.57
36834;BME280;48003;52.084;5.224;2023-06-19T10:12:54;101355.0;;;23.91;58.79
36834;BME280;48003;52.084;5.224;2023-06-19T10:14:31;101349.0;;;24.12;57.91
36834;BME280;48003;52.084;5.224;2023-06-19T10:16:08;101344.0;;;23.9;58.3
36834;BME280;48003;52.084;5.224;2023-06-19T10:21:16;101340.0;;;24.05;56.99
36834;BME280;48003;52.084;5.224;2023-06-19T10:22:57;101341.0;;;24.11;56.6
36834;BME280;48003;52.084;5.224;2023-06-19T10:24:34;101343.0;;;24.11;56.62
36834;BME280;48003;52.084;5.224;2023-06-19T10:27:51;101345.0;;;23.97;56.55
36834;BME280;48003;52.084;5.224;2023-06-19T10:29:38;101348.0;;;24.03;56.31
36834;BME280;48003;52.084;5.224;2023-06-19T10:31:14;101349.0;;;23.81;56.22
36834;BME280;48003;52.084;5.224;2023-06-19T10:32:50;101352.0;;;23.79;56.82
36834;BME280;48003;52.084;5.224;2023-06-19T10:36:14;101349.0;;;24.01;56.03
36834;BME280;48003;52.084;5.224;2023-06-19T10:37:55;101348.0;;;24.14;55.92
36834;BME280;48003;52.084;5.224;2023-06-19T10:39:31;101345.0;;;24.22;56.08
36834;BME280;48003;52.084;5.224;2023-06-19T10:41:14;101348.0;;;24.45;55.08
36834;BME280;48003;52.084;5.224;2023-06-19T10:44:27;101344.0;;;24.24;55.38
36834;BME280;48003;52.084;5.224;2023-06-19T10:46:03;101338.0;;;24.64;54.32
36834;BME280;48003;52.084;5.224;2023-06-19T10:47:39;101337.0;;;24.35;55.46
36834;BME280;48003;52.084;5.224;2023-06-19T10:49:17;101336.0;;;24.5;55.56
36834;BME280;48003;52.084;5.224;2023-06-19T10:52:32;101347.0;;;24.49;55.17
36834;BME280;48003;52.084;5.224;2023-06-19T10:54:09;101333.0;;;24.51;54.58
36834;BME280;48003;52.084;5.224;2023-06-19T10:55:45;101333.0;;;24.72;54.13
36834;BME280;48003;52.084;5.224;2023-06-19T10:59:05;101328.0;;;24.85;53.37
36834;BME280;48003;52.084;5.224;2023-06-19T11:00:42;101330.0;;;25.19;52.57
36834;BME280;48003;52.084;5.224;2023-06-19T11:02:19;101330.0;;;25.07;52.23
36834;BME280;48003;52.084;5.224;2023-06-19T11:03:55;101327.0;;;25.49;51.2
36834;BME280;48003;52.084;5.224;2023-06-19T11:07:07;101335.0;;;25.34;51.87
36834;BME280;48003;52.084;5.224;2023-06-19T11:08:50;101337.0;;;25.4;51.41